< Typhoon 195715 1957 Season Typhoon 195717 >
Typhoon 195716 (HESTER)
General InformationTrack Information on Google Maps || Disaster Info.ResourceGoogle EarthGE AnimationAtom FeedGeoJSON
Detalied Best Track (Time Zone = UTC)
Year Month Day Hour Lat. Long. Pressure (hPa) Wind (kt) Class Image Chart
1957 10 3 18 9.1 145.5 1006 0 2 -- Chart
1957 10 4 00 9.4 145.4 1006 0 2 -- Chart
1957 10 4 06 9.7 145.3 1003 0 2 -- Chart
1957 10 4 12 10.0 145.2 1003 0 9 -- Chart
1957 10 4 18 10.3 145.1 1002 0 9 -- Chart
1957 10 5 00 10.8 145.0 998 0 9 -- Chart
1957 10 5 06 11.7 145.1 998 0 9 -- Chart
1957 10 5 12 12.4 145.2 995 0 9 -- Chart
1957 10 5 18 13.5 145.0 990 0 9 -- Chart
1957 10 6 00 14.5 144.7 990 0 9 -- Chart
1957 10 6 06 15.6 144.2 990 0 9 -- Chart
1957 10 6 12 16.5 142.6 990 0 9 -- Chart
1957 10 6 18 17.1 142.3 980 0 9 -- Chart
1957 10 7 00 17.8 142.0 970 0 9 -- Chart
1957 10 7 06 18.3 141.7 960 0 9 -- Chart
1957 10 7 12 19.2 141.8 950 0 9 -- Chart
1957 10 7 18 20.7 141.8 920 0 9 -- Chart
1957 10 8 00 22.1 141.9 910 0 9 -- Chart
1957 10 8 06 23.8 142.3 900 0 9 -- Chart
1957 10 8 12 26.2 143.3 900 0 9 -- Chart
1957 10 8 18 28.7 144.2 920 0 9 -- Chart
1957 10 9 00 32.0 145.4 940 0 9 -- Chart
1957 10 9 06 36.2 146.3 960 0 9 -- Chart
1957 10 9 12 40.2 147.6 970 0 9 -- Chart
1957 10 9 18 44.0 151.8 970 0 9 -- Chart
1957 10 10 00 46.8 154.8 970 0 9 -- Chart
1957 10 10 06 47.8 156.2 970 0 9 -- Chart
1957 10 10 12 49.0 157.5 970 0 9 -- Chart
1957 10 10 18 50.2 158.8 975 0 6 -- Chart
1957 10 11 00 51.5 160.5 974 0 6 -- Chart
1957 10 11 06 52.5 163.5 972 0 6 -- Chart
1957 10 11 12 53.4 166.0 972 0 6 -- Chart
1957 10 11 18 53.5 169.0 970 0 6 -- Chart
1957 10 12 00 53.0 172.0 966 0 6 -- Chart
1957 10 12 06 53.0 174.0 965 0 6 -- Chart
1957 10 12 12 53.1 176.5 965 0 6 -- Chart
1957 10 12 18 53.8 179.0 965 0 6 -- Chart
1957 10 13 00 54.3 181.5 966 0 6 -- Chart
Japan Meteorological Agency Best Track Data | Correction Date : 1991-07-16
< Typhoon 195715 1957 Season Typhoon 195717 >

Help